Time;durP1;ratioP1;P1;durP2;ratioP2;P2;SDS_P1;SDS_P2;PMS_P1;PMS_P2;Temp;Humidity;BMP_temperature;BMP_pressure;BME280_temperature;BME280_humidity;BME280_pressure;Samples;Min_cycle;Max_cycle;Signal;HPM_P1;HPM_P2
2021/10/17 00:02:20;;;;;;;20.67;12.55;;;8.50;99.90;;;;;;5115764;28;20027;-92
2021/10/17 00:04:45;;;;;;;19.15;11.73;;;8.40;99.90;;;;;;5115633;28;20032;-93
2021/10/17 00:07:12;;;;;;;20.23;10.80;;;8.30;99.90;;;;;;5116077;28;20049;-92
2021/10/17 00:09:38;;;;;;;18.45;10.93;;;8.30;99.90;;;;;;5115584;28;20066;-92
2021/10/17 00:12:09;;;;;;;18.45;13.23;;;8.30;99.90;;;;;;5115883;28;20444;-92
2021/10/17 00:14:35;;;;;;;20.35;12.40;;;8.20;99.90;;;;;;5116705;27;20031;-91
2021/10/17 00:17:02;;;;;;;20.17;12.63;;;8.20;99.90;;;;;;5116701;28;20027;-92
2021/10/17 00:19:28;;;;;;;20.35;12.88;;;8.20;99.90;;;;;;5115432;28;20081;-92
2021/10/17 00:21:54;;;;;;;18.05;10.98;;;8.10;99.90;;;;;;5116769;28;20474;-92
2021/10/17 00:24:20;;;;;;;17.75;10.40;;;8.10;99.90;;;;;;5115358;28;20462;-92
2021/10/17 00:26:46;;;;;;;22.42;11.52;;;8.10;99.90;;;;;;5115521;28;20028;-92
2021/10/17 00:29:11;;;;;;;20.75;10.98;;;8.10;99.90;;;;;;5114894;28;20546;-92
2021/10/17 00:31:37;;;;;;;17.13;10.35;;;8.00;99.90;;;;;;5114950;28;20034;-92
2021/10/17 00:34:03;;;;;;;19.58;12.15;;;8.00;99.90;;;;;;5114909;28;20024;-91
2021/10/17 00:36:32;;;;;;;17.45;10.57;;;8.00;99.90;;;;;;5115258;28;20024;-91
2021/10/17 00:38:58;;;;;;;21.35;11.93;;;7.90;99.90;;;;;;5115733;28;20394;-91
2021/10/17 00:41:24;;;;;;;17.50;10.15;;;7.90;99.90;;;;;;5114967;28;20031;-91
2021/10/17 00:43:50;;;;;;;19.50;12.00;;;7.90;99.90;;;;;;5115000;28;20123;-91
2021/10/17 00:46:20;;;;;;;24.45;11.75;;;7.90;99.90;;;;;;5115015;28;20059;-92
2021/10/17 00:48:46;;;;;;;19.13;10.57;;;7.80;99.90;;;;;;5115039;28;20118;-92
2021/10/17 00:51:13;;;;;;;21.80;11.00;;;7.80;99.90;;;;;;5115886;28;20027;-91
2021/10/17 00:53:40;;;;;;;21.92;12.43;;;7.70;99.90;;;;;;5115096;28;20028;-92
2021/10/17 00:56:06;;;;;;;21.23;11.43;;;7.70;99.90;;;;;;5115742;28;20485;-91
2021/10/17 00:58:32;;;;;;;16.55;10.52;;;7.70;99.90;;;;;;5114917;28;20114;-92
2021/10/17 01:00:58;;;;;;;21.33;11.45;;;7.60;99.90;;;;;;5114827;28;20497;-93
2021/10/17 01:03:24;;;;;;;17.40;10.32;;;7.60;99.90;;;;;;5116593;28;20031;-92
2021/10/17 01:05:50;;;;;;;19.92;12.57;;;7.50;99.90;;;;;;5114720;28;20537;-92
2021/10/17 01:08:17;;;;;;;16.90;10.18;;;7.60;99.90;;;;;;5115031;28;20072;-92
2021/10/17 01:10:43;;;;;;;17.02;9.38;;;7.50;99.90;;;;;;5114611;28;20036;-92
2021/10/17 01:13:16;;;;;;;14.45;9.90;;;7.50;99.90;;;;;;5115841;28;20024;-91
2021/10/17 01:15:43;;;;;;;15.23;9.98;;;7.50;99.90;;;;;;5115850;28;20027;-92
2021/10/17 01:18:09;;;;;;;13.85;9.23;;;7.40;99.90;;;;;;5114499;28;20031;-92
2021/10/17 01:20:34;;;;;;;23.10;10.63;;;7.40;99.90;;;;;;5114473;28;20359;-92
2021/10/17 01:23:01;;;;;;;22.08;12.05;;;7.30;99.90;;;;;;5114134;28;20502;-92
2021/10/17 01:25:27;;;;;;;19.30;11.90;;;7.30;99.90;;;;;;5114583;28;20482;-92
2021/10/17 01:27:52;;;;;;;16.08;9.55;;;7.30;99.90;;;;;;5115127;28;20031;-91
2021/10/17 01:30:18;;;;;;;17.23;9.52;;;7.30;99.90;;;;;;5115340;28;20379;-91
2021/10/17 01:32:44;;;;;;;15.43;8.32;;;7.30;99.90;;;;;;5115921;28;20028;-91
2021/10/17 01:35:10;;;;;;;14.93;8.73;;;7.30;99.90;;;;;;5114659;28;20462;-91
2021/10/17 01:37:36;;;;;;;21.42;10.70;;;7.20;99.90;;;;;;5114271;28;20058;-92
2021/10/17 01:40:03;;;;;;;18.63;10.25;;;7.20;99.90;;;;;;5114654;28;20047;-91
2021/10/17 01:42:29;;;;;;;17.02;9.43;;;7.20;99.90;;;;;;5116726;28;20030;-91
2021/10/17 01:44:55;;;;;;;16.45;8.70;;;7.20;99.90;;;;;;5118898;28;20484;-91
2021/10/17 01:47:21;;;;;;;15.32;9.07;;;7.10;99.90;;;;;;5118834;28;20031;-91
2021/10/17 01:49:46;;;;;;;11.93;7.32;;;7.10;99.90;;;;;;5116742;28;20462;-91
2021/10/17 01:52:12;;;;;;;14.07;8.07;;;7.10;99.90;;;;;;5116920;28;20085;-91
2021/10/17 01:54:38;;;;;;;15.23;8.38;;;7.10;99.90;;;;;;5125105;28;20019;-92
2021/10/17 01:57:04;;;;;;;14.77;9.43;;;7.00;99.90;;;;;;5124395;28;20458;-91
2021/10/17 01:59:30;;;;;;;13.40;8.65;;;7.00;99.90;;;;;;5119680;28;20463;-92
2021/10/17 02:01:55;;;;;;;18.27;9.73;;;7.00;99.90;;;;;;5113774;28;20024;-92
2021/10/17 02:04:21;;;;;;;15.82;9.38;;;7.00;99.90;;;;;;5113271;28;20382;-92
2021/10/17 02:06:47;;;;;;;20.77;9.52;;;6.90;99.90;;;;;;5113545;28;20102;-92
2021/10/17 02:09:12;;;;;;;17.58;10.90;;;6.90;99.90;;;;;;5114407;28;20034;-92
2021/10/17 02:11:38;;;;;;;18.83;10.25;;;6.90;99.90;;;;;;5113444;28;20458;-92
2021/10/17 02:14:05;;;;;;;17.58;9.25;;;6.90;99.90;;;;;;5114503;28;20470;-92
2021/10/17 02:16:31;;;;;;;15.90;8.10;;;6.80;99.90;;;;;;5113883;28;20207;-92
2021/10/17 02:18:56;;;;;;;19.42;9.70;;;6.80;99.90;;;;;;5113221;28;20051;-92
2021/10/17 02:21:22;;;;;;;24.48;10.05;;;6.70;99.90;;;;;;5113346;28;20031;-92
2021/10/17 02:23:48;;;;;;;15.73;8.45;;;6.70;99.90;;;;;;5113228;28;20024;-92
2021/10/17 02:26:14;;;;;;;17.67;8.23;;;6.70;99.90;;;;;;5113332;28;20081;-92
2021/10/17 02:28:40;;;;;;;20.00;9.30;;;6.70;99.90;;;;;;5114066;28;20473;-92
2021/10/17 02:31:06;;;;;;;21.73;11.57;;;6.70;99.90;;;;;;5113581;28;20025;-93
2021/10/17 02:33:32;;;;;;;15.90;8.65;;;6.70;99.90;;;;;;5112947;28;20047;-92
2021/10/17 02:35:59;;;;;;;15.35;8.00;;;6.70;99.90;;;;;;5113491;28;20028;-92
2021/10/17 02:38:24;;;;;;;16.40;8.55;;;6.70;99.90;;;;;;5113200;28;20047;-92
2021/10/17 02:40:50;;;;;;;17.42;10.73;;;6.70;99.90;;;;;;5112600;28;20032;-92
2021/10/17 02:43:16;;;;;;;17.38;8.60;;;6.70;99.90;;;;;;5112676;28;20491;-92
2021/10/17 02:45:42;;;;;;;15.15;8.85;;;6.70;99.90;;;;;;5112350;28;20547;-91
2021/10/17 02:48:07;;;;;;;19.02;9.57;;;6.80;99.90;;;;;;5112956;28;20024;-92
2021/10/17 02:50:33;;;;;;;26.95;10.45;;;6.80;99.90;;;;;;5113850;28;20110;-92
2021/10/17 02:52:59;;;;;;;15.60;8.85;;;6.80;99.90;;;;;;5116851;28;20035;-92
2021/10/17 02:55:25;;;;;;;16.25;9.98;;;6.80;99.90;;;;;;5117017;28;20019;-92
2021/10/17 02:57:51;;;;;;;15.48;9.05;;;6.80;99.90;;;;;;5118275;28;20023;-92
2021/10/17 03:00:17;;;;;;;18.65;8.60;;;6.80;99.90;;;;;;5117200;28;20122;-92
2021/10/17 03:02:43;;;;;;;18.83;10.73;;;6.80;99.90;;;;;;5117544;28;20028;-92
2021/10/17 03:05:09;;;;;;;17.88;10.13;;;6.80;99.90;;;;;;5116924;28;20051;-93
2021/10/17 03:07:34;;;;;;;16.77;9.20;;;6.80;99.90;;;;;;5116738;28;20028;-92
2021/10/17 03:10:00;;;;;;;15.32;8.32;;;6.80;99.90;;;;;;5117098;28;20119;-92
2021/10/17 03:12:26;;;;;;;14.20;8.88;;;6.80;99.90;;;;;;5118073;28;20027;-92
2021/10/17 03:14:52;;;;;;;24.88;11.23;;;6.80;99.90;;;;;;5117384;28;20059;-92
2021/10/17 03:17:18;;;;;;;18.52;10.82;;;6.80;99.90;;;;;;5118108;28;20034;-92
2021/10/17 03:19:43;;;;;;;20.55;12.00;;;6.80;99.90;;;;;;5117914;28;20036;-91
2021/10/17 03:22:09;;;;;;;16.52;10.68;;;6.80;99.90;;;;;;5116588;28;20031;-92
2021/10/17 03:24:35;;;;;;;21.27;10.40;;;6.80;99.90;;;;;;5116493;28;20111;-91
2021/10/17 03:27:00;;;;;;;16.05;8.93;;;6.80;99.90;;;;;;5116421;28;20038;-92
2021/10/17 03:29:26;;;;;;;17.10;9.43;;;6.80;99.90;;;;;;5116218;28;20066;-92
2021/10/17 03:31:52;;;;;;;22.67;12.35;;;6.80;99.90;;;;;;5116568;28;20031;-92
2021/10/17 03:34:17;;;;;;;18.58;11.18;;;6.80;99.90;;;;;;5117519;28;20079;-92
2021/10/17 03:36:43;;;;;;;20.50;10.88;;;6.80;99.90;;;;;;5116538;28;20084;-92
2021/10/17 03:39:09;;;;;;;22.80;10.88;;;6.70;99.90;;;;;;5117299;28;20028;-92
2021/10/17 03:41:34;;;;;;;19.13;11.57;;;6.70;99.90;;;;;;5116002;28;20503;-92
2021/10/17 03:44:00;;;;;;;16.45;9.88;;;6.70;99.90;;;;;;5116569;28;20035;-92
2021/10/17 03:46:26;;;;;;;17.52;9.73;;;6.70;99.90;;;;;;5116537;28;20031;-92
2021/10/17 03:48:51;;;;;;;20.05;11.63;;;6.60;99.90;;;;;;5116583;28;20035;-92
2021/10/17 03:51:17;;;;;;;21.00;10.82;;;6.60;99.90;;;;;;5115846;28;20073;-92
2021/10/17 03:53:43;;;;;;;17.75;8.07;;;6.60;99.90;;;;;;5117134;28;20035;-91
2021/10/17 03:56:09;;;;;;;17.10;10.52;;;6.60;99.90;;;;;;5117238;28;20020;-92
2021/10/17 03:58:34;;;;;;;14.50;9.20;;;6.60;99.90;;;;;;5116167;28;20107;-91
2021/10/17 04:01:00;;;;;;;15.48;9.82;;;6.60;99.90;;;;;;5115411;28;20027;-92
2021/10/17 04:03:26;;;;;;;16.77;10.20;;;6.60;99.90;;;;;;5116010;28;20028;-92
2021/10/17 04:05:52;;;;;;;13.38;7.88;;;6.60;99.90;;;;;;5115497;28;20026;-92
2021/10/17 04:08:17;;;;;;;20.50;9.85;;;6.60;99.90;;;;;;5115691;28;20024;-92
2021/10/17 04:10:43;;;;;;;18.20;11.45;;;6.60;99.90;;;;;;5116877;28;20031;-92
2021/10/17 04:13:09;;;;;;;15.85;10.13;;;6.60;99.90;;;;;;5116058;28;20055;-92
2021/10/17 04:15:37;;;;;;;16.83;9.05;;;6.60;99.90;;;;;;5117023;28;20030;-92
2021/10/17 04:18:04;;;;;;;19.35;10.13;;;6.60;99.90;;;;;;5116766;28;20382;-92
2021/10/17 04:20:30;;;;;;;19.15;10.68;;;6.60;99.90;;;;;;5115495;28;20089;-92
2021/10/17 04:22:56;;;;;;;18.08;10.13;;;6.60;99.90;;;;;;5115312;28;20030;-91
2021/10/17 04:25:22;;;;;;;20.13;10.68;;;6.60;99.90;;;;;;5115208;28;20114;-92
2021/10/17 04:27:48;;;;;;;15.80;10.25;;;6.60;99.90;;;;;;5115481;28;20020;-92
2021/10/17 04:30:14;;;;;;;16.02;10.27;;;6.60;99.90;;;;;;5115070;28;20055;-92
2021/10/17 04:32:40;;;;;;;18.40;9.50;;;6.60;99.90;;;;;;5116539;28;20023;-92
2021/10/17 04:35:08;;;;;;;14.50;8.77;;;6.60;99.90;;;;;;5118588;28;20518;-91
2021/10/17 04:37:34;;;;;;;13.75;9.25;;;6.60;99.90;;;;;;5119206;28;20115;-92
2021/10/17 04:40:00;;;;;;;23.00;12.05;;;6.60;99.90;;;;;;5115722;28;20028;-92
2021/10/17 04:42:26;;;;;;;14.65;7.65;;;6.60;99.90;;;;;;5115123;28;20062;-92
2021/10/17 04:44:52;;;;;;;13.68;9.23;;;6.60;99.90;;;;;;5116770;28;20024;-92
2021/10/17 04:47:17;;;;;;;18.38;7.85;;;6.60;99.90;;;;;;5115305;28;20562;-92
2021/10/17 04:49:43;;;;;;;12.52;7.88;;;6.60;99.90;;;;;;5115163;28;20031;-92
2021/10/17 04:52:09;;;;;;;15.63;9.27;;;6.60;99.90;;;;;;5114742;28;20080;-92
2021/10/17 04:54:35;;;;;;;15.25;9.68;;;6.60;99.90;;;;;;5114541;28;20019;-92
2021/10/17 04:57:00;;;;;;;19.90;7.85;;;6.70;99.90;;;;;;5114659;28;20059;-92
2021/10/17 04:59:26;;;;;;;16.63;9.52;;;6.70;99.90;;;;;;5114619;28;20032;-92
2021/10/17 05:01:52;;;;;;;14.98;9.13;;;6.70;99.90;;;;;;5115005;28;20481;-92
2021/10/17 05:04:18;;;;;;;16.65;9.15;;;6.70;99.90;;;;;;5116208;28;20450;-92
2021/10/17 05:06:44;;;;;;;16.25;9.32;;;6.80;99.90;;;;;;5114642;28;20023;-92
2021/10/17 05:09:10;;;;;;;19.38;10.30;;;6.80;99.90;;;;;;5114669;28;20483;-92
2021/10/17 05:11:36;;;;;;;14.77;9.13;;;6.90;99.90;;;;;;5114666;28;20031;-92
2021/10/17 05:14:02;;;;;;;19.27;9.30;;;6.90;99.90;;;;;;5115261;28;20496;-92
2021/10/17 05:16:27;;;;;;;18.27;10.73;;;7.00;99.90;;;;;;5115181;28;20030;-92
2021/10/17 05:18:53;;;;;;;19.77;9.55;;;7.10;99.90;;;;;;5122192;28;20061;-91
2021/10/17 05:21:19;;;;;;;21.10;11.38;;;7.20;99.90;;;;;;5120553;28;20024;-93
2021/10/17 05:23:44;;;;;;;16.23;9.52;;;7.20;99.90;;;;;;5121430;28;20020;-91
2021/10/17 05:26:10;;;;;;;19.45;9.85;;;7.30;99.90;;;;;;5128279;28;20034;-92
2021/10/17 05:28:36;;;;;;;18.98;9.88;;;7.50;99.90;;;;;;5122082;28;20038;-91
2021/10/17 05:31:03;;;;;;;19.63;11.27;;;7.60;99.90;;;;;;5120942;28;20027;-92
2021/10/17 05:33:33;;;;;;;21.15;11.77;;;7.70;99.90;;;;;;5116841;28;20024;-92
2021/10/17 05:35:59;;;;;;;16.50;9.68;;;7.80;99.90;;;;;;5114152;28;20070;-92
2021/10/17 05:38:25;;;;;;;17.00;9.43;;;7.80;99.90;;;;;;5113941;28;20431;-93
2021/10/17 05:40:51;;;;;;;20.88;12.63;;;7.90;99.90;;;;;;5114075;28;20031;-92
2021/10/17 05:43:16;;;;;;;18.10;11.23;;;7.90;99.90;;;;;;5115081;28;20068;-91
2021/10/17 05:45:42;;;;;;;15.20;9.13;;;7.90;99.90;;;;;;5115091;28;20455;-91
2021/10/17 05:48:07;;;;;;;13.48;8.18;;;7.90;99.90;;;;;;5113786;28;20457;-91
2021/10/17 05:50:33;;;;;;;15.82;8.88;;;8.00;99.90;;;;;;5113760;28;20519;-91
2021/10/17 05:52:59;;;;;;;14.93;9.23;;;8.00;99.90;;;;;;5113788;28;20355;-91
2021/10/17 05:55:24;;;;;;;18.27;10.27;;;8.10;99.90;;;;;;5114992;28;20478;-90
2021/10/17 05:57:50;;;;;;;18.20;11.20;;;8.10;99.90;;;;;;5113974;28;20515;-91
2021/10/17 06:00:16;;;;;;;23.83;9.32;;;8.10;99.90;;;;;;5114214;28;20024;-91
2021/10/17 06:02:42;;;;;;;16.38;10.23;;;8.10;99.90;;;;;;5114764;28;20505;-91
2021/10/17 06:05:08;;;;;;;21.02;10.02;;;8.10;99.90;;;;;;5114739;28;20066;-91
2021/10/17 06:07:35;;;;;;;18.65;10.40;;;8.10;99.90;;;;;;5116091;28;20722;-91
2021/10/17 06:10:01;;;;;;;18.08;11.18;;;8.10;99.90;;;;;;5117189;28;20028;-90
2021/10/17 06:12:27;;;;;;;18.88;10.93;;;8.10;99.90;;;;;;5116260;28;20481;-91
2021/10/17 06:14:53;;;;;;;16.15;9.35;;;8.10;99.90;;;;;;5115115;28;20224;-90
2021/10/17 06:17:19;;;;;;;22.73;11.35;;;8.10;99.90;;;;;;5114794;28;20481;-91
2021/10/17 06:19:45;;;;;;;16.48;9.75;;;8.20;99.90;;;;;;5114947;28;20054;-89
2021/10/17 06:22:11;;;;;;;20.98;12.10;;;8.30;99.90;;;;;;5114170;28;20470;-92
2021/10/17 06:24:37;;;;;;;16.38;9.00;;;8.40;99.90;;;;;;5113153;28;20450;-90
2021/10/17 06:27:03;;;;;;;20.17;10.43;;;8.50;99.90;;;;;;5113310;28;20055;-90
2021/10/17 06:29:29;;;;;;;19.58;14.05;;;8.60;99.90;;;;;;5113308;28;20044;-90
2021/10/17 06:31:54;;;;;;;18.13;10.88;;;8.70;99.90;;;;;;5113575;28;20097;-90
2021/10/17 06:34:20;;;;;;;16.95;10.02;;;8.80;99.90;;;;;;5113000;28;20446;-91
2021/10/17 06:36:47;;;;;;;18.45;11.77;;;8.80;99.90;;;;;;5113219;28;20072;-90
2021/10/17 06:39:13;;;;;;;20.02;11.30;;;8.90;99.90;;;;;;5113447;28;20123;-91
2021/10/17 06:41:39;;;;;;;15.38;8.25;;;9.00;99.90;;;;;;5113904;28;20114;-91
2021/10/17 06:44:05;;;;;;;19.90;11.45;;;9.00;99.90;;;;;;5113287;28;20539;-91
2021/10/17 06:46:31;;;;;;;22.42;12.55;;;9.20;99.90;;;;;;5113680;28;20122;-90
2021/10/17 06:48:57;;;;;;;18.10;11.70;;;9.30;99.90;;;;;;5112995;28;20073;-91
2021/10/17 06:51:23;;;;;;;18.88;9.98;;;9.30;99.90;;;;;;5113564;28;20155;-90
2021/10/17 06:53:48;;;;;;;12.80;8.80;;;9.30;99.90;;;;;;5113168;28;20020;-91
2021/10/17 06:56:14;;;;;;;16.75;11.05;;;9.40;99.90;;;;;;5113487;28;20458;-90
2021/10/17 06:58:40;;;;;;;18.73;10.55;;;9.50;99.90;;;;;;5113576;28;20035;-91
2021/10/17 07:01:07;;;;;;;19.27;11.00;;;9.60;99.90;;;;;;5113036;28;20047;-92
2021/10/17 07:03:33;;;;;;;16.33;10.15;;;9.60;99.90;;;;;;5113217;28;20023;-91
2021/10/17 07:05:59;;;;;;;22.45;11.70;;;9.70;99.90;;;;;;5113164;28;20462;-92
2021/10/17 07:08:25;;;;;;;22.08;10.75;;;9.80;99.90;;;;;;5114482;28;20024;-91
2021/10/17 07:10:51;;;;;;;20.15;11.13;;;9.80;99.90;;;;;;5112771;28;20466;-91
2021/10/17 07:13:16;;;;;;;19.58;10.65;;;9.80;99.90;;;;;;5107093;28;20020;-91
2021/10/17 07:15:42;;;;;;;16.98;11.65;;;9.80;99.90;;;;;;5091942;28;20028;-91
2021/10/17 07:18:08;;;;;;;18.83;11.38;;;9.80;99.90;;;;;;5091926;28;20028;-92
2021/10/17 07:20:34;;;;;;;16.08;10.77;;;9.90;99.90;;;;;;5092579;28;20021;-91
2021/10/17 07:22:59;;;;;;;24.95;12.27;;;9.90;99.90;;;;;;5093240;28;20352;-91
2021/10/17 07:25:25;;;;;;;20.15;11.30;;;10.00;99.90;;;;;;5092492;28;20028;-91
2021/10/17 07:27:53;;;;;;;17.85;11.75;;;10.00;99.90;;;;;;5097230;28;20066;-91
2021/10/17 07:30:20;;;;;;;14.30;9.60;;;10.00;99.90;;;;;;5098432;28;20108;-91
2021/10/17 07:32:46;;;;;;;15.68;10.18;;;10.00;99.90;;;;;;5096890;28;20034;-91
2021/10/17 07:35:12;;;;;;;25.17;11.65;;;10.00;99.90;;;;;;5092177;28;20073;-91
2021/10/17 07:37:38;;;;;;;11.90;8.55;;;10.10;99.90;;;;;;5094679;28;20020;-91
2021/10/17 07:40:05;;;;;;;15.77;10.35;;;10.20;99.90;;;;;;5096479;28;20032;-91
2021/10/17 07:42:31;;;;;;;15.07;8.25;;;10.20;99.90;;;;;;5096288;28;20074;-91
2021/10/17 07:44:58;;;;;;;15.73;10.82;;;10.30;99.90;;;;;;5096116;28;20020;-91
2021/10/17 07:47:24;;;;;;;22.48;10.68;;;10.30;99.90;;;;;;5102442;28;20040;-91
2021/10/17 07:49:50;;;;;;;14.73;9.65;;;10.30;99.90;;;;;;5103401;28;20032;-91
2021/10/17 07:52:15;;;;;;;15.75;10.35;;;10.30;99.90;;;;;;5103995;28;20078;-90
2021/10/17 07:54:41;;;;;;;16.23;11.05;;;10.40;99.90;;;;;;5098556;28;20432;-91
2021/10/17 07:57:07;;;;;;;15.02;10.38;;;10.40;99.90;;;;;;5095717;28;20359;-91
2021/10/17 07:59:33;;;;;;;13.73;9.60;;;10.40;99.90;;;;;;5095510;28;20032;-91
2021/10/17 08:01:59;;;;;;;15.15;10.32;;;10.50;99.90;;;;;;5095589;28;20031;-91
2021/10/17 08:04:25;;;;;;;17.00;10.13;;;10.60;99.90;;;;;;5095817;28;20375;-91
2021/10/17 08:06:51;;;;;;;13.93;9.85;;;10.70;99.90;;;;;;5095021;28;20024;-92
2021/10/17 08:09:17;;;;;;;13.85;8.98;;;10.80;99.90;;;;;;5095239;28;20033;-91
2021/10/17 08:11:43;;;;;;;13.65;9.52;;;10.80;99.90;;;;;;5095158;28;20329;-91
2021/10/17 08:14:08;;;;;;;14.82;9.65;;;10.90;99.90;;;;;;5094814;28;20123;-91
2021/10/17 08:16:34;;;;;;;17.02;9.00;;;10.90;99.90;;;;;;5095215;28;20020;-92
2021/10/17 08:19:00;;;;;;;13.23;7.93;;;10.90;99.90;;;;;;5095322;28;20095;-91
2021/10/17 08:21:26;;;;;;;11.05;7.45;;;11.00;99.90;;;;;;5095749;28;20031;-91
2021/10/17 08:23:52;;;;;;;11.32;8.88;;;11.00;99.90;;;;;;5095443;28;20107;-91
2021/10/17 08:26:17;;;;;;;15.98;10.00;;;11.00;99.70;;;;;;5094953;28;20475;-91
2021/10/17 08:28:43;;;;;;;15.75;8.85;;;11.00;99.80;;;;;;5094559;28;20048;-91
2021/10/17 08:31:09;;;;;;;12.73;9.18;;;11.10;99.60;;;;;;5094796;28;20039;-91
2021/10/17 08:33:34;;;;;;;14.38;9.35;;;11.10;99.30;;;;;;5095707;28;20379;-91
2021/10/17 08:36:00;;;;;;;13.57;8.15;;;11.20;98.90;;;;;;5095028;28;20025;-92
2021/10/17 08:38:26;;;;;;;12.85;8.13;;;11.20;98.40;;;;;;5095975;28;20032;-91
2021/10/17 08:40:56;;;;;;;15.63;9.25;;;11.20;98.70;;;;;;5095025;28;20437;-91
2021/10/17 08:43:22;;;;;;;15.95;9.25;;;11.30;98.50;;;;;;5095212;28;20035;-92
2021/10/17 08:45:47;;;;;;;11.70;9.10;;;11.30;98.30;;;;;;5095144;28;20032;-91
2021/10/17 08:48:13;;;;;;;8.20;6.72;;;11.40;98.50;;;;;;5094819;28;20028;-91
2021/10/17 08:50:41;;;;;;;10.60;8.07;;;11.50;98.80;;;;;;5094571;28;20036;-91
2021/10/17 08:53:07;;;;;;;12.80;8.88;;;11.60;98.60;;;;;;5094670;28;20031;-90
2021/10/17 08:55:32;;;;;;;14.57;8.88;;;11.70;98.40;;;;;;5094699;28;20024;-90
2021/10/17 08:57:58;;;;;;;10.00;7.55;;;11.80;98.00;;;;;;5094393;28;20383;-92
2021/10/17 09:00:35;;;;;;;12.52;7.57;;;11.80;97.60;;;;;;5095515;28;20519;-90
2021/10/17 09:03:02;;;;;;;9.73;7.32;;;11.80;96.90;;;;;;5095777;28;20032;-90
2021/10/17 09:05:39;;;;;;;12.27;8.10;;;11.80;97.30;;;;;;5094534;28;20169;-91
2021/10/17 09:08:08;;;;;;;11.80;7.65;;;11.90;97.20;;;;;;5094728;28;20024;-90
2021/10/17 09:10:36;;;;;;;11.40;7.10;;;11.90;96.70;;;;;;5096348;28;20039;-90
2021/10/17 09:13:10;;;;;;;11.75;7.53;;;12.00;96.40;;;;;;5094313;28;20119;-90
2021/10/17 09:15:36;;;;;;;10.50;6.28;;;12.10;96.40;;;;;;5094533;28;20031;-90
2021/10/17 09:18:08;;;;;;;8.70;7.18;;;12.10;96.40;;;;;;5094526;28;20035;-90
2021/10/17 09:20:46;;;;;;;11.63;7.85;;;12.10;96.20;;;;;;5094178;28;20127;-90
2021/10/17 09:23:37;;;;;;;11.35;7.13;;;12.10;95.80;;;;;;5093887;28;20115;-90
2021/10/17 09:26:14;;;;;;;9.25;6.65;;;12.20;95.50;;;;;;5081824;28;20131;-90
2021/10/17 09:28:40;;;;;;;10.40;7.25;;;12.30;95.10;;;;;;5097310;28;20027;-92
2021/10/17 09:31:16;;;;;;;9.90;6.95;;;12.40;95.70;;;;;;5114466;28;20039;-93
2021/10/17 09:33:46;;;;;;;10.95;7.20;;;12.40;95.20;;;;;;5114689;28;20028;-93
2021/10/17 09:36:25;;;;;;;12.57;6.70;;;12.50;95.40;;;;;;5115098;28;20091;-92
2021/10/17 09:38:54;;;;;;;11.20;8.43;;;12.60;95.40;;;;;;5115711;28;20019;-91
2021/10/17 09:41:33;;;;;;;9.25;6.47;;;12.60;95.40;;;;;;5108662;28;20028;-91
2021/10/17 09:44:00;;;;;;;7.63;5.82;;;12.70;95.80;;;;;;5114009;28;20031;-91
2021/10/17 09:46:27;;;;;;;8.48;6.18;;;12.80;94.60;;;;;;5114367;28;20052;-93
2021/10/17 09:48:53;;;;;;;10.43;6.45;;;12.80;94.30;;;;;;5113837;28;20123;-91
2021/10/17 09:51:26;;;;;;;8.35;5.03;;;12.80;94.40;;;;;;5113921;28;20023;-91
2021/10/17 09:53:57;;;;;;;6.35;5.07;;;12.80;94.40;;;;;;5109573;28;20085;-90
2021/10/17 09:56:47;;;;;;;6.97;4.82;;;12.80;92.80;;;;;;5105883;28;20056;-91
2021/10/17 09:59:14;;;;;;;7.65;5.55;;;12.90;93.60;;;;;;5096928;28;20024;-91
2021/10/17 10:01:42;;;;;;;8.68;5.32;;;12.90;92.80;;;;;;5107005;28;20080;-93
2021/10/17 10:04:14;;;;;;;7.28;4.72;;;12.90;92.40;;;;;;5096715;28;20032;-91
2021/10/17 10:06:40;;;;;;;7.35;5.00;;;12.90;92.00;;;;;;5096394;28;20068;-90
2021/10/17 10:09:10;;;;;;;6.78;4.38;;;12.90;91.30;;;;;;5093532;28;20064;-92
2021/10/17 10:11:37;;;;;;;6.07;4.35;;;12.90;90.60;;;;;;5078271;28;20431;-93
2021/10/17 10:14:06;;;;;;;4.90;3.78;;;12.90;90.20;;;;;;5093144;28;20489;-92
2021/10/17 10:16:34;;;;;;;5.75;4.05;;;12.90;89.90;;;;;;5093800;28;20024;-91
2021/10/17 10:19:14;;;;;;;7.30;3.88;;;12.90;89.20;;;;;;5093402;28;20398;-91
2021/10/17 10:21:43;;;;;;;6.93;3.92;;;12.90;88.30;;;;;;5099102;28;20499;-91
2021/10/17 10:24:12;;;;;;;5.90;3.75;;;12.80;84.10;;;;;;5097079;28;20028;-91
2021/10/17 10:26:53;;;;;;;3.97;2.97;;;12.80;83.20;;;;;;5099961;28;20056;-93
2021/10/17 10:29:24;;;;;;;3.67;2.58;;;12.70;82.80;;;;;;5113849;28;20081;-92
2021/10/17 10:31:55;;;;;;;5.95;3.60;;;12.70;82.40;;;;;;5117290;28;20028;-92
2021/10/17 10:34:36;;;;;;;4.43;3.30;;;12.70;83.00;;;;;;5102985;28;20030;-91
2021/10/17 10:37:16;;;;;;;4.85;3.50;;;12.70;78.10;;;;;;5116524;28;20111;-91
2021/10/17 10:40:00;;;;;;;5.00;3.72;;;12.80;78.70;;;;;;5114808;28;20019;-90
2021/10/17 10:42:33;;;;;;;;;;;12.80;78.40;;;;;;5119357;28;20030;-91
2021/10/17 10:45:16;;;;;;;3.70;2.65;;;12.80;80.40;;;;;;5115423;28;19908;-91
2021/10/17 10:47:42;;;;;;;5.45;3.17;;;12.80;81.80;;;;;;5094541;28;20039;-88
2021/10/17 10:50:07;;;;;;;9.60;3.90;;;12.80;82.10;;;;;;5091929;28;20485;-87
2021/10/17 10:52:33;;;;;;;3.92;3.00;;;12.80;80.10;;;;;;5091569;28;20068;-87
2021/10/17 10:55:06;;;;;;;3.53;2.78;;;12.90;80.80;;;;;;5092134;28;20122;-87
2021/10/17 10:57:44;;;;;;;4.97;3.10;;;13.00;81.60;;;;;;5091759;28;20030;-87
2021/10/17 11:00:15;;;;;;;6.22;3.65;;;13.10;78.30;;;;;;5097694;28;20047;-87
2021/10/17 11:03:13;;;;;;;6.20;3.60;;;13.10;78.70;;;;;;5093404;28;20027;-87
2021/10/17 11:06:00;;;;;;;5.68;3.47;;;13.10;77.90;;;;;;5098673;28;20024;-88
2021/10/17 11:08:27;;;;;;;4.03;3.00;;;13.10;79.60;;;;;;5096284;28;20036;-89
2021/10/17 11:10:53;;;;;;;4.55;3.08;;;13.20;79.70;;;;;;5092645;28;20035;-89
2021/10/17 11:13:32;;;;;;;5.43;3.60;;;13.20;77.70;;;;;;5103375;28;20103;-90
2021/10/17 11:16:20;;;;;;;6.25;3.30;;;13.20;76.20;;;;;;5115685;28;20098;-91
2021/10/17 11:19:12;;;;;;;4.20;3.30;;;13.20;76.20;;;;;;5098108;28;20475;-88
2021/10/17 11:21:38;;;;;;;3.22;2.90;;;13.20;74.50;;;;;;5091658;28;20085;-89
2021/10/17 11:24:05;;;;;;;6.25;3.75;;;13.20;77.50;;;;;;5102978;28;20024;-89
2021/10/17 11:26:31;;;;;;;5.82;3.47;;;13.20;76.40;;;;;;5096017;28;20081;-91
2021/10/17 11:28:59;;;;;;;4.05;2.80;;;13.20;77.30;;;;;;5097447;28;20056;-90
2021/10/17 11:31:25;;;;;;;3.10;2.67;;;13.20;76.90;;;;;;5096179;28;20024;-90
2021/10/17 11:33:51;;;;;;;5.20;3.55;;;13.30;77.30;;;;;;5099807;28;20089;-90
2021/10/17 11:36:18;;;;;;;4.47;2.88;;;13.30;76.30;;;;;;5099547;28;20059;-89
2021/10/17 11:38:47;;;;;;;5.55;3.08;;;13.20;76.10;;;;;;5100293;28;20028;-91
2021/10/17 11:41:16;;;;;;;4.05;2.88;;;13.10;76.40;;;;;;5095335;28;20429;-91
2021/10/17 11:43:49;;;;;;;4.60;3.30;;;13.10;77.00;;;;;;5100631;28;20036;-89
2021/10/17 11:46:22;;;;;;;3.13;2.40;;;13.20;76.10;;;;;;5109988;28;20031;-89
2021/10/17 11:48:59;;;;;;;4.75;3.10;;;13.40;77.60;;;;;;5109560;28;20023;-90
2021/10/17 11:51:25;;;;;;;2.67;2.38;;;13.40;76.00;;;;;;5097964;28;20043;-88
2021/10/17 11:54:05;;;;;;;3.25;2.90;;;13.60;77.30;;;;;;5094965;28;20021;-90
2021/10/17 11:56:32;;;;;;;4.18;2.90;;;13.80;75.70;;;;;;5096015;28;20034;-89
2021/10/17 11:58:57;;;;;;;5.18;2.90;;;13.90;73.90;;;;;;5095408;28;20020;-89
2021/10/17 12:01:23;;;;;;;6.25;3.03;;;14.10;72.70;;;;;;5095393;28;20324;-88
2021/10/17 12:03:57;;;;;;;4.43;2.45;;;14.20;70.50;;;;;;5094896;28;20060;-87
2021/10/17 12:06:25;;;;;;;3.92;2.88;;;14.20;72.20;;;;;;5104672;28;20021;-88
2021/10/17 12:09:05;;;;;;;3.33;2.60;;;14.20;71.40;;;;;;5105496;28;20069;-90
2021/10/17 12:11:31;;;;;;;7.53;3.00;;;14.10;70.00;;;;;;5102064;28;20028;-92
2021/10/17 12:13:59;;;;;;;4.47;3.47;;;14.10;69.90;;;;;;5097094;28;20047;-90
2021/10/17 12:16:28;;;;;;;3.67;3.00;;;14.00;68.70;;;;;;5094184;28;20063;-89
2021/10/17 12:19:02;;;;;;;4.30;2.80;;;13.90;69.10;;;;;;5094667;28;20039;-88
2021/10/17 12:21:38;;;;;;;2.90;2.53;;;13.80;70.70;;;;;;5100891;28;20052;-89
2021/10/17 12:24:04;;;;;;;3.17;2.45;;;13.80;71.10;;;;;;5110276;28;20066;-89
2021/10/17 12:26:32;;;;;;;2.85;2.33;;;13.80;70.10;;;;;;5097472;28;20035;-89
2021/10/17 12:29:20;;;;;;;3.10;2.67;;;13.70;69.50;;;;;;5097070;28;20058;-91
2021/10/17 12:32:01;;;;;;;5.40;2.55;;;13.70;66.40;;;;;;5104477;28;20047;-92
2021/10/17 12:34:39;;;;;;;4.97;2.72;;;13.50;66.50;;;;;;5112726;28;20035;-93
2021/10/17 12:37:29;;;;;;;3.97;2.10;;;13.40;67.10;;;;;;5096081;28;20031;-92
2021/10/17 12:40:05;;;;;;;3.25;2.38;;;13.40;69.10;;;;;;5095246;28;20028;-92
2021/10/17 12:42:42;;;;;;;5.65;2.92;;;13.40;66.90;;;;;;5095075;28;20431;-93
2021/10/17 12:45:14;;;;;;;4.18;2.97;;;13.40;67.20;;;;;;5095704;28;20115;-92